createdAt,value
2022-11-30T00:01:15.524Z,101205.50
2022-11-30T00:03:42.557Z,101211.06
2022-11-30T00:06:15.220Z,101218.59
2022-11-30T00:08:42.844Z,101228.78
2022-11-30T00:11:13.943Z,101223.38
2022-11-30T00:13:41.243Z,101216.25
2022-11-30T00:16:08.898Z,101223.53
2022-11-30T00:18:36.406Z,101225.53
2022-11-30T00:21:05.593Z,101241.75
2022-11-30T00:23:37.592Z,101242.47
2022-11-30T00:26:06.953Z,101250.84
2022-11-30T00:28:35.447Z,101234.63
2022-11-30T00:31:05.588Z,101227.75
2022-11-30T00:33:34.507Z,101237.94
2022-11-30T00:36:04.322Z,101230.91
2022-11-30T00:38:34.578Z,101223.06
2022-11-30T00:41:02.326Z,101233.34
2022-11-30T00:43:29.677Z,101236.78
2022-11-30T00:45:57.557Z,101247.00
2022-11-30T00:48:24.629Z,101259.53
2022-11-30T00:50:51.808Z,101262.41
2022-11-30T00:53:19.844Z,101251.38
2022-11-30T00:55:47.694Z,101251.88
2022-11-30T00:58:14.951Z,101252.75
2022-11-30T01:00:42.465Z,101248.75
2022-11-30T01:03:10.036Z,101258.53
2022-11-30T01:05:37.343Z,101257.53
2022-11-30T01:08:06.502Z,101253.53
2022-11-30T01:10:34.885Z,101245.72
2022-11-30T01:13:02.136Z,101247.84
2022-11-30T01:15:29.442Z,101241.94
2022-11-30T01:17:58.794Z,101239.25
2022-11-30T01:20:25.788Z,101241.50
2022-11-30T01:22:52.747Z,101235.19
2022-11-30T01:25:19.648Z,101233.63
2022-11-30T01:27:49.357Z,101219.63
2022-11-30T01:30:16.614Z,101205.19
2022-11-30T01:32:43.571Z,101201.44
2022-11-30T01:35:11.290Z,101194.00
2022-11-30T01:37:38.193Z,101200.34
2022-11-30T01:40:05.769Z,101189.13
2022-11-30T01:42:33.231Z,101186.75
2022-11-30T01:45:01.896Z,101199.84
2022-11-30T01:47:37.577Z,101218.69
2022-11-30T01:50:17.377Z,101209.63
2022-11-30T01:52:48.636Z,101201.19
2022-11-30T01:55:15.707Z,101221.22
2022-11-30T01:57:51.566Z,101212.88
2022-11-30T02:00:19.270Z,101199.19
2022-11-30T02:03:16.457Z,101194.59
2022-11-30T02:05:43.355Z,101183.59
2022-11-30T02:08:11.246Z,101199.81
2022-11-30T02:10:42.088Z,101188.56
2022-11-30T02:13:17.931Z,101209.19
2022-11-30T02:15:50.641Z,101211.06
2022-11-30T02:18:38.749Z,101219.38
2022-11-30T02:21:24.943Z,101210.84
2022-11-30T02:24:05.335Z,101224.88
2022-11-30T02:26:44.194Z,101219.22
2022-11-30T02:29:22.993Z,101224.78
2022-11-30T02:31:57.342Z,101218.47
2022-11-30T02:34:28.608Z,101216.28
2022-11-30T02:36:57.427Z,101229.19
2022-11-30T02:39:24.371Z,101230.75
2022-11-30T02:41:51.386Z,101227.91
2022-11-30T02:44:20.548Z,101225.00
2022-11-30T02:47:06.212Z,101222.25
2022-11-30T02:50:04.656Z,101219.38
2022-11-30T02:52:32.298Z,101218.50
2022-11-30T02:55:03.913Z,101207.50
2022-11-30T02:57:30.959Z,101218.22
2022-11-30T02:59:59.270Z,101217.53
2022-11-30T03:02:27.326Z,101209.97
2022-11-30T03:04:54.215Z,101200.44
2022-11-30T03:07:21.086Z,101205.63
2022-11-30T03:09:47.975Z,101220.13
2022-11-30T03:12:14.889Z,101211.19
2022-11-30T03:14:41.852Z,101205.03
2022-11-30T03:17:08.919Z,101192.31
2022-11-30T03:19:35.829Z,101198.47
2022-11-30T03:22:02.689Z,101195.78
2022-11-30T03:24:30.047Z,101198.31
2022-11-30T03:26:56.930Z,101220.50
2022-11-30T03:29:23.987Z,101218.44
2022-11-30T03:31:50.906Z,101204.66
2022-11-30T03:34:17.848Z,101214.63
2022-11-30T03:36:44.696Z,101197.50
2022-11-30T03:39:11.665Z,101183.66
2022-11-30T03:41:38.577Z,101184.69
2022-11-30T03:44:05.445Z,101189.59
2022-11-30T03:46:32.403Z,101183.19
2022-11-30T03:48:59.307Z,101189.13
2022-11-30T03:51:26.442Z,101190.13
2022-11-30T03:53:53.336Z,101190.50
2022-11-30T03:56:20.674Z,101191.28
2022-11-30T03:58:47.661Z,101181.41
2022-11-30T04:01:17.763Z,101177.28
2022-11-30T04:03:44.974Z,101167.38
2022-11-30T04:06:13.211Z,101183.19
2022-11-30T04:08:41.383Z,101146.22
2022-11-30T04:11:08.703Z,101169.25
2022-11-30T04:13:37.149Z,101172.97
2022-11-30T04:16:05.189Z,101176.88
2022-11-30T04:18:33.443Z,101179.63
2022-11-30T04:21:01.368Z,101188.78
2022-11-30T04:23:34.457Z,101199.22
2022-11-30T04:26:03.890Z,101187.75
2022-11-30T04:28:30.791Z,101200.25
2022-11-30T04:30:57.781Z,101200.25
2022-11-30T04:33:24.714Z,101211.09
2022-11-30T04:35:55.550Z,101206.22
2022-11-30T04:38:23.918Z,101205.56
2022-11-30T04:40:51.062Z,101198.75
2022-11-30T04:43:18.530Z,101204.72
2022-11-30T04:45:46.048Z,101201.56
2022-11-30T04:48:13.852Z,101215.31
2022-11-30T04:50:40.812Z,101219.63
2022-11-30T04:53:08.278Z,101223.16
2022-11-30T04:55:37.081Z,101223.16
2022-11-30T04:58:05.471Z,101217.38
2022-11-30T05:00:32.876Z,101210.50
2022-11-30T05:02:59.742Z,101210.66
2022-11-30T05:05:26.738Z,101213.69
2022-11-30T05:07:59.211Z,101205.97
2022-11-30T05:10:28.617Z,101225.03
2022-11-30T05:12:55.768Z,101214.91
2022-11-30T05:15:23.123Z,101225.78
2022-11-30T05:17:50.061Z,101208.28
2022-11-30T05:20:17.281Z,101230.69
2022-11-30T05:22:44.222Z,101226.22
2022-11-30T05:25:11.258Z,101231.72
2022-11-30T05:27:38.521Z,101253.53
2022-11-30T05:30:07.284Z,101243.00
2022-11-30T05:32:35.175Z,101232.63
2022-11-30T05:35:02.117Z,101245.25
2022-11-30T05:37:29.034Z,101235.63
2022-11-30T05:39:55.941Z,101246.69
2022-11-30T05:42:23.018Z,101251.94
2022-11-30T05:44:50.197Z,101257.53
2022-11-30T05:47:17.589Z,101261.66
2022-11-30T05:49:44.474Z,101256.03
2022-11-30T05:52:11.539Z,101242.19
2022-11-30T05:54:38.395Z,101246.22
2022-11-30T05:57:05.560Z,101253.03
2022-11-30T05:59:32.502Z,101263.66
2022-11-30T06:01:59.752Z,101265.91
2022-11-30T06:04:26.782Z,101276.59
2022-11-30T06:06:55.830Z,101264.84
2022-11-30T06:09:23.432Z,101278.66
2022-11-30T06:11:50.819Z,101285.97
2022-11-30T06:14:18.151Z,101291.28
2022-11-30T06:16:45.332Z,101310.16
2022-11-30T06:19:12.333Z,101314.09
2022-11-30T06:21:39.285Z,101315.91
2022-11-30T06:24:06.557Z,101318.56
2022-11-30T06:26:33.485Z,101327.31
2022-11-30T06:29:00.408Z,101337.81
2022-11-30T06:31:27.319Z,101329.22
2022-11-30T06:33:58.303Z,101348.38
2022-11-30T06:36:25.629Z,101350.44
2022-11-30T06:38:52.989Z,101355.63
2022-11-30T06:41:19.956Z,101346.00
2022-11-30T06:43:47.283Z,101342.78
2022-11-30T06:46:14.251Z,101344.97
2022-11-30T06:48:41.241Z,101354.03
2022-11-30T06:51:10.039Z,101339.38
2022-11-30T06:53:37.768Z,101334.03
2022-11-30T06:56:10.743Z,101368.16
2022-11-30T06:58:39.692Z,101347.44
2022-11-30T07:01:08.845Z,101354.34
2022-11-30T07:03:36.418Z,101345.31
2022-11-30T07:06:10.727Z,101347.50
2022-11-30T07:08:38.703Z,101356.69
2022-11-30T07:11:06.239Z,101356.13
2022-11-30T07:13:33.456Z,101351.09
2022-11-30T07:16:03.652Z,101353.31
2022-11-30T07:18:32.329Z,101354.94
2022-11-30T07:21:03.680Z,101355.81
2022-11-30T07:23:55.994Z,101353.97
2022-11-30T07:26:23.899Z,101352.81
2022-11-30T07:28:55.207Z,101351.78
2022-11-30T07:31:30.318Z,101358.78
2022-11-30T07:33:58.767Z,101366.56
2022-11-30T07:36:27.371Z,101357.34
2022-11-30T07:38:54.371Z,101359.47
2022-11-30T07:41:21.311Z,101351.81
2022-11-30T07:43:48.150Z,101365.22
2022-11-30T07:46:16.629Z,101370.09
2022-11-30T07:48:45.186Z,101350.31
2022-11-30T07:51:18.420Z,101349.16
2022-11-30T07:53:45.533Z,101354.94
2022-11-30T07:56:15.364Z,101348.88
2022-11-30T07:58:42.495Z,101343.31
2022-11-30T08:01:12.954Z,101361.28
2022-11-30T08:03:40.218Z,101363.53
2022-11-30T08:06:09.921Z,101366.84
2022-11-30T08:08:39.275Z,101348.22
2022-11-30T08:11:08.268Z,101349.44
2022-11-30T08:13:35.487Z,101340.41
2022-11-30T08:16:03.946Z,101347.91
2022-11-30T08:18:31.085Z,101364.63
2022-11-30T08:21:03.159Z,101352.31
2022-11-30T08:23:51.285Z,101346.97
2022-11-30T08:26:23.145Z,101342.72
2022-11-30T08:28:51.228Z,101340.53
2022-11-30T08:31:30.391Z,101344.47
2022-11-30T08:33:58.958Z,101328.78
2022-11-30T08:36:27.388Z,101323.09
2022-11-30T08:38:54.488Z,101314.13
2022-11-30T08:41:22.718Z,101308.88
2022-11-30T08:43:50.581Z,101302.00
2022-11-30T08:46:50.897Z,101311.44
2022-11-30T08:49:21.020Z,101298.63
2022-11-30T08:54:39.202Z,101303.16
2022-11-30T08:57:06.150Z,101306.81
2022-11-30T08:59:33.069Z,101320.91
2022-11-30T09:01:59.942Z,101319.53
2022-11-30T09:04:26.998Z,101307.66
2022-11-30T09:06:58.857Z,101319.00
2022-11-30T09:09:26.094Z,101304.13
2022-11-30T09:11:53.136Z,101309.75
2022-11-30T09:14:20.099Z,101309.81
2022-11-30T09:16:47.073Z,101302.44
2022-11-30T09:19:14.088Z,101299.19
2022-11-30T09:21:44.294Z,101303.97
2022-11-30T09:24:13.933Z,101295.53
2022-11-30T09:26:40.826Z,101296.88
2022-11-30T09:29:07.981Z,101292.81
2022-11-30T09:31:34.877Z,101299.06
2022-11-30T09:34:01.731Z,101281.16
2022-11-30T09:36:29.321Z,101295.34
2022-11-30T09:38:57.182Z,101300.06
2022-11-30T09:41:40.984Z,101294.47
2022-11-30T09:44:25.480Z,101296.81
2022-11-30T09:47:09.160Z,101297.84
2022-11-30T09:49:47.272Z,101290.59
2022-11-30T09:52:23.521Z,101285.06
2022-11-30T09:54:50.538Z,101284.78
2022-11-30T09:57:47.122Z,101288.72
2022-11-30T10:00:22.501Z,101289.47
2022-11-30T10:02:51.656Z,101290.31
2022-11-30T10:05:43.667Z,101277.72
2022-11-30T10:08:18.134Z,101269.13
2022-11-30T10:11:12.805Z,101278.44
2022-11-30T10:13:54.081Z,101256.22
2022-11-30T10:16:49.819Z,101267.81
2022-11-30T10:19:39.282Z,101275.13
2022-11-30T10:22:38.448Z,101257.06
2022-11-30T10:25:43.345Z,101269.19
2022-11-30T10:31:17.471Z,101257.19
2022-11-30T10:33:50.387Z,101271.34
2022-11-30T10:36:44.617Z,101265.19
2022-11-30T10:39:20.669Z,101260.53
2022-11-30T10:41:57.024Z,101254.91
2022-11-30T10:44:33.117Z,101256.69
2022-11-30T10:47:03.441Z,101250.38
2022-11-30T10:49:32.242Z,101249.53
2022-11-30T10:52:05.517Z,101249.47
2022-11-30T10:54:34.643Z,101249.78
2022-11-30T10:57:04.049Z,101228.81
2022-11-30T10:59:41.953Z,101242.91
2022-11-30T11:02:35.797Z,101239.72
2022-11-30T11:05:25.616Z,101240.66
2022-11-30T11:08:17.617Z,101240.09
2022-11-30T11:10:47.695Z,101244.78
2022-11-30T11:13:39.505Z,101232.03
2022-11-30T11:16:12.169Z,101225.34
2022-11-30T11:18:57.494Z,101220.78
2022-11-30T11:21:24.701Z,101212.91
2022-11-30T11:23:54.803Z,101224.00
2022-11-30T11:26:25.399Z,101226.59
2022-11-30T11:28:54.658Z,101232.72
2022-11-30T11:31:42.922Z,101240.59
2022-11-30T11:34:28.292Z,101228.22
2022-11-30T11:37:14.529Z,101246.19
2022-11-30T11:39:41.475Z,101252.03
2022-11-30T11:42:22.460Z,101261.22
2022-11-30T11:44:55.956Z,101289.50
2022-11-30T11:47:27.700Z,101303.63
2022-11-30T11:50:20.861Z,101322.28
2022-11-30T11:53:15.560Z,101313.09
2022-11-30T11:55:44.369Z,101328.50
2022-11-30T11:58:25.311Z,101334.41
2022-11-30T12:01:10.636Z,101319.44
2022-11-30T12:04:26.288Z,101296.44
2022-11-30T12:06:55.707Z,101305.22
2022-11-30T12:09:29.496Z,101309.59
2022-11-30T12:11:56.417Z,101294.13
2022-11-30T12:14:26.382Z,101296.66
2022-11-30T12:17:12.207Z,101314.09
2022-11-30T12:19:58.021Z,101299.50
2022-11-30T12:23:04.642Z,101299.25
2022-11-30T12:25:37.746Z,101315.09
2022-11-30T12:28:10.626Z,101315.13
2022-11-30T12:31:02.464Z,101336.19
2022-11-30T12:33:45.373Z,101339.25
2022-11-30T12:36:33.570Z,101336.97
2022-11-30T12:39:24.050Z,101345.50
2022-11-30T12:42:07.205Z,101343.00
2022-11-30T12:45:11.358Z,101353.66
2022-11-30T12:47:38.424Z,101355.53
2022-11-30T12:50:27.232Z,101363.00
2022-11-30T12:53:15.399Z,101365.72
2022-11-30T12:55:46.664Z,101354.31
2022-11-30T12:58:26.732Z,101380.38
2022-11-30T13:00:53.822Z,101366.81
2022-11-30T13:03:32.804Z,101371.94
2022-11-30T13:06:02.041Z,101371.25
2022-11-30T13:08:50.725Z,101376.75
2022-11-30T13:11:33.687Z,101379.59
2022-11-30T13:14:01.403Z,101364.88
2022-11-30T13:16:31.162Z,101377.44
2022-11-30T13:19:08.790Z,101380.16
2022-11-30T13:21:44.509Z,101371.56
2022-11-30T13:24:20.380Z,101367.94
2022-11-30T13:26:47.347Z,101379.31
2022-11-30T13:29:24.682Z,101380.13
2022-11-30T13:32:56.186Z,101368.97
2022-11-30T13:35:31.124Z,101378.19
2022-11-30T13:38:35.045Z,101342.03
2022-11-30T13:40:59.882Z,101340.09
2022-11-30T13:43:30.962Z,101344.78
2022-11-30T13:46:20.787Z,101337.47
2022-11-30T13:48:48.641Z,101353.91
2022-11-30T13:51:39.409Z,101349.91
2022-11-30T13:54:41.114Z,101362.50
2022-11-30T13:57:29.765Z,101367.97
2022-11-30T14:00:02.004Z,101355.75
2022-11-30T14:02:32.435Z,101351.06
2022-11-30T14:05:14.673Z,101360.97
2022-11-30T14:07:44.270Z,101356.44
2022-11-30T14:10:32.956Z,101355.91
2022-11-30T14:13:10.632Z,101352.97
2022-11-30T14:16:02.589Z,101342.34
2022-11-30T14:18:29.473Z,101333.91
2022-11-30T14:21:33.144Z,101334.56
2022-11-30T14:24:04.066Z,101339.22
2022-11-30T14:26:37.387Z,101329.81
2022-11-30T14:29:10.484Z,101336.44
2022-11-30T14:31:49.577Z,101338.09
2022-11-30T14:34:30.058Z,101325.25
2022-11-30T14:37:02.594Z,101325.41
2022-11-30T14:39:44.345Z,101350.50
2022-11-30T14:42:25.246Z,101341.25
2022-11-30T14:44:53.389Z,101338.28
2022-11-30T14:47:26.947Z,101343.31
2022-11-30T14:49:57.176Z,101344.22
2022-11-30T14:52:57.744Z,101341.66
2022-11-30T14:55:50.147Z,101341.31
2022-11-30T14:58:52.850Z,101352.56
2022-11-30T15:01:24.822Z,101350.72
2022-11-30T15:03:56.056Z,101338.81
2022-11-30T15:06:29.754Z,101339.06
2022-11-30T15:09:00.330Z,101352.19
2022-11-30T15:11:27.984Z,101353.13
2022-11-30T15:13:57.434Z,101346.31
2022-11-30T15:16:24.461Z,101351.91
2022-11-30T15:18:53.538Z,101346.22
2022-11-30T15:21:24.239Z,101342.69
2022-11-30T15:23:59.671Z,101357.94
2022-11-30T15:26:35.482Z,101349.19
2022-11-30T15:29:13.181Z,101360.00
2022-11-30T15:31:44.154Z,101359.03
2022-11-30T15:34:29.759Z,101351.41
2022-11-30T15:36:58.576Z,101367.03
2022-11-30T15:39:27.710Z,101360.72
2022-11-30T15:42:00.109Z,101369.28
2022-11-30T15:44:33.168Z,101363.22
2022-11-30T15:47:02.849Z,101367.09
2022-11-30T15:49:31.723Z,101368.16
2022-11-30T15:52:15.791Z,101358.13
2022-11-30T15:55:03.579Z,101357.09
2022-11-30T15:57:58.794Z,101356.50
2022-11-30T16:00:26.081Z,101368.44
2022-11-30T16:03:13.162Z,101362.97
2022-11-30T16:05:40.550Z,101377.06
2022-11-30T16:08:17.145Z,101379.44
2022-11-30T16:10:44.359Z,101376.03
2022-11-30T16:13:20.517Z,101379.34
2022-11-30T16:15:52.797Z,101387.38
2022-11-30T16:18:26.373Z,101384.69
2022-11-30T16:20:58.473Z,101387.13
2022-11-30T16:23:26.644Z,101390.78
2022-11-30T16:25:53.965Z,101373.59
2022-11-30T16:28:22.468Z,101375.59
2022-11-30T16:30:50.260Z,101376.56
2022-11-30T16:33:23.047Z,101377.34
2022-11-30T16:35:49.826Z,101386.31
2022-11-30T16:38:17.216Z,101394.97
2022-11-30T16:40:44.391Z,101419.94
2022-11-30T16:43:12.605Z,101413.19
2022-11-30T16:45:41.375Z,101414.94
2022-11-30T16:48:08.415Z,101417.25
2022-11-30T16:50:35.622Z,101407.28
2022-11-30T16:53:03.524Z,101410.31
2022-11-30T16:55:34.785Z,101424.03
2022-11-30T16:58:01.941Z,101421.53
2022-11-30T17:00:29.000Z,101404.34
2022-11-30T17:03:00.259Z,101411.09
2022-11-30T17:05:27.996Z,101418.63
2022-11-30T17:07:55.502Z,101409.78
2022-11-30T17:10:23.185Z,101409.84
2022-11-30T17:12:50.089Z,101412.06
2022-11-30T17:15:23.617Z,101403.91
2022-11-30T17:17:50.537Z,101409.59
2022-11-30T17:20:18.395Z,101382.72
2022-11-30T17:22:45.670Z,101407.59
2022-11-30T17:25:16.577Z,101413.66
2022-11-30T17:27:43.785Z,101410.06
2022-11-30T17:30:12.298Z,101398.84
2022-11-30T17:32:39.294Z,101411.09
2022-11-30T17:35:06.900Z,101408.59
2022-11-30T17:37:34.437Z,101410.13
2022-11-30T17:40:01.386Z,101407.53
2022-11-30T17:42:29.312Z,101412.41
2022-11-30T17:44:56.198Z,101421.22
2022-11-30T17:47:23.069Z,101409.53
2022-11-30T17:49:50.625Z,101405.69
2022-11-30T17:52:17.800Z,101409.38
2022-11-30T17:54:44.846Z,101395.13
2022-11-30T17:57:11.794Z,101413.56
2022-11-30T17:59:38.685Z,101413.81
2022-11-30T18:02:05.636Z,101410.31
2022-11-30T18:04:32.538Z,101405.28
2022-11-30T18:06:59.634Z,101406.16
2022-11-30T18:09:26.527Z,101400.28
2022-11-30T18:11:53.409Z,101381.19
2022-11-30T18:14:20.333Z,101383.63
2022-11-30T18:16:47.655Z,101396.66
2022-11-30T18:19:15.648Z,101407.69
2022-11-30T18:21:44.261Z,101413.84
2022-11-30T18:24:12.677Z,101426.47
2022-11-30T18:26:39.843Z,101425.09
2022-11-30T18:29:07.333Z,101409.94
2022-11-30T18:31:36.424Z,101409.72
2022-11-30T18:34:06.522Z,101416.78
2022-11-30T18:36:34.557Z,101407.22
2022-11-30T18:39:01.681Z,101409.50
2022-11-30T18:41:30.525Z,101410.03
2022-11-30T18:43:58.024Z,101414.22
2022-11-30T18:46:25.691Z,101407.81
2022-11-30T18:48:53.205Z,101404.59
2022-11-30T18:51:28.367Z,101394.66
2022-11-30T18:54:00.759Z,101407.13
2022-11-30T18:56:30.520Z,101419.59
2022-11-30T18:59:00.511Z,101427.56
2022-11-30T19:01:28.539Z,101427.03
2022-11-30T19:04:01.126Z,101426.81
2022-11-30T19:06:30.012Z,101428.25
2022-11-30T19:08:57.485Z,101432.97
2022-11-30T19:11:24.955Z,101436.66
2022-11-30T19:13:56.216Z,101429.56
2022-11-30T19:16:24.861Z,101430.03
2022-11-30T19:18:52.769Z,101431.19
2022-11-30T19:21:21.792Z,101437.69
2022-11-30T19:23:49.662Z,101433.13
2022-11-30T19:26:16.986Z,101432.28
2022-11-30T19:28:44.915Z,101434.97
2022-11-30T19:31:19.552Z,101429.16
2022-11-30T19:33:48.326Z,101435.75
2022-11-30T19:36:21.805Z,101431.53
2022-11-30T19:38:51.408Z,101425.06
2022-11-30T19:41:20.697Z,101430.72
2022-11-30T19:43:53.929Z,101432.88
2022-11-30T19:46:24.262Z,101431.03
2022-11-30T19:49:01.467Z,101430.00
2022-11-30T19:51:30.773Z,101416.50
2022-11-30T19:53:59.416Z,101416.44
2022-11-30T19:56:28.107Z,101413.41
2022-11-30T19:58:58.753Z,101419.47
2022-11-30T20:01:31.021Z,101431.34
2022-11-30T20:03:58.474Z,101432.16
2022-11-30T20:06:33.766Z,101429.94
2022-11-30T20:09:01.686Z,101445.47
2022-11-30T20:11:28.870Z,101426.22
2022-11-30T20:13:55.834Z,101424.53
2022-11-30T20:16:23.259Z,101436.72
2022-11-30T20:18:55.962Z,101437.94
2022-11-30T20:21:25.385Z,101419.34
2022-11-30T20:23:54.738Z,101418.59
2022-11-30T20:26:30.223Z,101426.13
2022-11-30T20:28:57.714Z,101424.06
2022-11-30T20:31:26.280Z,101430.97
2022-11-30T20:33:53.542Z,101404.03
2022-11-30T20:36:21.405Z,101424.91
2022-11-30T20:38:48.927Z,101405.00
2022-11-30T20:41:20.200Z,101397.41
2022-11-30T20:43:47.968Z,101403.94
2022-11-30T20:46:23.571Z,101401.66
2022-11-30T20:48:51.585Z,101400.69
2022-11-30T20:51:32.051Z,101413.63
2022-11-30T20:54:01.497Z,101406.44
2022-11-30T20:56:28.483Z,101390.78
2022-11-30T20:58:55.544Z,101400.78
2022-11-30T21:01:23.264Z,101404.38
2022-11-30T21:03:50.436Z,101419.88
2022-11-30T21:06:17.431Z,101421.53
2022-11-30T21:08:44.472Z,101422.06
2022-11-30T21:11:14.567Z,101427.06
2022-11-30T21:13:44.138Z,101434.03
2022-11-30T21:16:12.300Z,101456.19
2022-11-30T21:18:41.661Z,101474.66
2022-11-30T21:21:15.524Z,101489.13
2022-11-30T21:23:42.840Z,101484.47
2022-11-30T21:26:34.083Z,101482.34
2022-11-30T21:29:07.258Z,101473.03
2022-11-30T21:31:34.962Z,101492.94
2022-11-30T21:34:02.136Z,101485.59
2022-11-30T21:36:29.108Z,101470.03
2022-11-30T21:39:05.700Z,101488.59
2022-11-30T21:41:38.764Z,101507.97
2022-11-30T21:44:08.369Z,101495.16
2022-11-30T21:46:35.482Z,101488.41
2022-11-30T21:49:03.246Z,101484.28
2022-11-30T21:51:31.937Z,101492.13
2022-11-30T21:54:04.820Z,101477.44
2022-11-30T21:56:33.961Z,101467.19
2022-11-30T21:59:01.524Z,101460.47
2022-11-30T22:01:31.109Z,101450.22
2022-11-30T22:03:59.271Z,101454.25
2022-11-30T22:06:28.165Z,101450.44
2022-11-30T22:09:08.001Z,101442.38
2022-11-30T22:11:39.096Z,101445.13
2022-11-30T22:14:07.486Z,101443.47
2022-11-30T22:16:36.500Z,101448.94
2022-11-30T22:19:05.332Z,101443.63
2022-11-30T22:21:32.715Z,101442.34
2022-11-30T22:24:02.020Z,101446.63
2022-11-30T22:26:30.454Z,101444.25
2022-11-30T22:29:03.227Z,101452.13
2022-11-30T22:31:33.067Z,101444.09
2022-11-30T22:34:00.221Z,101440.09
2022-11-30T22:36:29.700Z,101448.59
2022-11-30T22:38:58.984Z,101454.09
2022-11-30T22:41:26.989Z,101448.94
2022-11-30T22:43:55.084Z,101442.03
2022-11-30T22:46:24.825Z,101431.47
2022-11-30T22:48:52.425Z,101439.03
2022-11-30T22:51:24.497Z,101440.59
2022-11-30T22:53:52.332Z,101446.66
2022-11-30T22:56:23.694Z,101448.06
2022-11-30T22:58:54.080Z,101455.09
2022-11-30T23:01:24.361Z,101446.94
2022-11-30T23:04:02.092Z,101445.75
2022-11-30T23:06:29.203Z,101434.25
2022-11-30T23:08:56.137Z,101416.13
2022-11-30T23:11:24.864Z,101418.00
2022-11-30T23:13:52.544Z,101399.06
2022-11-30T23:16:20.577Z,101391.44
2022-11-30T23:18:57.266Z,101388.47
2022-11-30T23:21:26.673Z,101395.94
2022-11-30T23:23:56.844Z,101401.44
2022-11-30T23:26:25.795Z,101384.94
2022-11-30T23:28:54.158Z,101374.69
2022-11-30T23:31:33.993Z,101381.53
2022-11-30T23:34:05.587Z,101383.09
2022-11-30T23:36:33.836Z,101386.06
2022-11-30T23:39:04.231Z,101391.13
2022-11-30T23:41:31.292Z,101407.66
2022-11-30T23:43:58.645Z,101421.22
2022-11-30T23:46:26.140Z,101430.72
2022-11-30T23:48:53.071Z,101422.31
2022-11-30T23:51:20.042Z,101427.59
2022-11-30T23:53:47.745Z,101434.91
2022-11-30T23:56:17.237Z,101440.00
2022-11-30T23:58:44.256Z,101438.69
